sensor_id;sensor_type;location;lat;lon;timestamp;P1;durP1;ratioP1;P2;durP2;ratioP2
79410;SDS011;69635;50.964;6.948;2024-01-15T00:00:21;13.73;;;6.07;;
79410;SDS011;69635;50.964;6.948;2024-01-15T00:02:47;17.90;;;7.20;;
79410;SDS011;69635;50.964;6.948;2024-01-15T00:05:12;12.82;;;6.30;;
79410;SDS011;69635;50.964;6.948;2024-01-15T00:07:37;17.33;;;6.78;;
79410;SDS011;69635;50.964;6.948;2024-01-15T00:10:03;16.63;;;7.75;;
79410;SDS011;69635;50.964;6.948;2024-01-15T00:12:29;15.77;;;7.65;;
79410;SDS011;69635;50.964;6.948;2024-01-15T00:14:54;22.20;;;7.38;;
79410;SDS011;69635;50.964;6.948;2024-01-15T00:17:20;15.30;;;6.03;;
79410;SDS011;69635;50.964;6.948;2024-01-15T00:19:45;12.35;;;5.65;;
79410;SDS011;69635;50.964;6.948;2024-01-15T00:22:11;18.25;;;6.15;;
79410;SDS011;69635;50.964;6.948;2024-01-15T00:24:36;13.43;;;6.45;;
79410;SDS011;69635;50.964;6.948;2024-01-15T00:27:02;21.55;;;7.60;;
79410;SDS011;69635;50.964;6.948;2024-01-15T00:29:27;16.77;;;6.78;;
79410;SDS011;69635;50.964;6.948;2024-01-15T00:31:53;21.50;;;6.22;;
79410;SDS011;69635;50.964;6.948;2024-01-15T00:34:18;12.40;;;6.15;;
79410;SDS011;69635;50.964;6.948;2024-01-15T00:36:44;17.30;;;5.97;;
79410;SDS011;69635;50.964;6.948;2024-01-15T00:39:12;13.68;;;6.57;;
79410;SDS011;69635;50.964;6.948;2024-01-15T00:41:38;24.92;;;9.20;;
79410;SDS011;69635;50.964;6.948;2024-01-15T00:44:03;11.32;;;6.53;;
79410;SDS011;69635;50.964;6.948;2024-01-15T00:46:30;18.55;;;7.00;;
79410;SDS011;69635;50.964;6.948;2024-01-15T00:48:55;24.80;;;8.32;;
79410;SDS011;69635;50.964;6.948;2024-01-15T00:51:21;21.38;;;7.50;;
79410;SDS011;69635;50.964;6.948;2024-01-15T00:53:46;15.25;;;8.43;;
79410;SDS011;69635;50.964;6.948;2024-01-15T00:56:12;19.17;;;6.90;;
79410;SDS011;69635;50.964;6.948;2024-01-15T00:58:37;18.20;;;7.57;;
79410;SDS011;69635;50.964;6.948;2024-01-15T01:01:02;24.55;;;10.40;;
79410;SDS011;69635;50.964;6.948;2024-01-15T01:03:28;17.80;;;8.73;;
79410;SDS011;69635;50.964;6.948;2024-01-15T01:05:53;15.57;;;6.38;;
79410;SDS011;69635;50.964;6.948;2024-01-15T01:08:19;24.17;;;8.95;;
79410;SDS011;69635;50.964;6.948;2024-01-15T01:10:44;26.23;;;9.75;;
79410;SDS011;69635;50.964;6.948;2024-01-15T01:13:10;18.30;;;7.75;;
79410;SDS011;69635;50.964;6.948;2024-01-15T01:15:35;20.85;;;8.27;;
79410;SDS011;69635;50.964;6.948;2024-01-15T01:18:01;21.67;;;7.93;;
79410;SDS011;69635;50.964;6.948;2024-01-15T01:20:26;16.48;;;7.35;;
79410;SDS011;69635;50.964;6.948;2024-01-15T01:22:51;13.30;;;6.03;;
79410;SDS011;69635;50.964;6.948;2024-01-15T01:25:17;13.60;;;6.40;;
79410;SDS011;69635;50.964;6.948;2024-01-15T01:27:42;15.13;;;6.03;;
79410;SDS011;69635;50.964;6.948;2024-01-15T01:30:08;18.38;;;7.03;;
79410;SDS011;69635;50.964;6.948;2024-01-15T01:32:33;13.23;;;5.30;;
79410;SDS011;69635;50.964;6.948;2024-01-15T01:34:59;24.33;;;9.15;;
79410;SDS011;69635;50.964;6.948;2024-01-15T01:37:24;13.07;;;6.13;;
79410;SDS011;69635;50.964;6.948;2024-01-15T01:39:50;19.38;;;6.45;;
79410;SDS011;69635;50.964;6.948;2024-01-15T01:42:15;14.25;;;6.43;;
79410;SDS011;69635;50.964;6.948;2024-01-15T01:44:41;13.35;;;5.20;;
79410;SDS011;69635;50.964;6.948;2024-01-15T01:47:09;24.90;;;7.10;;
79410;SDS011;69635;50.964;6.948;2024-01-15T01:49:35;19.73;;;6.82;;
79410;SDS011;69635;50.964;6.948;2024-01-15T01:52:01;19.08;;;9.30;;
79410;SDS011;69635;50.964;6.948;2024-01-15T01:54:29;18.23;;;7.32;;
79410;SDS011;69635;50.964;6.948;2024-01-15T01:56:56;12.55;;;6.15;;
79410;SDS011;69635;50.964;6.948;2024-01-15T01:59:22;17.10;;;6.93;;
79410;SDS011;69635;50.964;6.948;2024-01-15T02:01:50;20.02;;;8.20;;
79410;SDS011;69635;50.964;6.948;2024-01-15T02:04:16;18.23;;;7.20;;
79410;SDS011;69635;50.964;6.948;2024-01-15T02:06:42;13.77;;;5.72;;
79410;SDS011;69635;50.964;6.948;2024-01-15T02:09:07;21.15;;;7.97;;
79410;SDS011;69635;50.964;6.948;2024-01-15T02:11:34;17.27;;;7.55;;
79410;SDS011;69635;50.964;6.948;2024-01-15T02:14:01;21.92;;;7.60;;
79410;SDS011;69635;50.964;6.948;2024-01-15T02:16:26;12.68;;;6.82;;
79410;SDS011;69635;50.964;6.948;2024-01-15T02:18:52;10.93;;;4.85;;
79410;SDS011;69635;50.964;6.948;2024-01-15T02:21:17;19.00;;;7.80;;
79410;SDS011;69635;50.964;6.948;2024-01-15T02:23:42;16.88;;;6.97;;
79410;SDS011;69635;50.964;6.948;2024-01-15T02:26:08;17.88;;;7.15;;
79410;SDS011;69635;50.964;6.948;2024-01-15T02:28:34;19.45;;;6.70;;
79410;SDS011;69635;50.964;6.948;2024-01-15T02:30:59;13.90;;;6.40;;
79410;SDS011;69635;50.964;6.948;2024-01-15T02:33:25;13.05;;;6.63;;
79410;SDS011;69635;50.964;6.948;2024-01-15T02:35:52;13.30;;;6.75;;
79410;SDS011;69635;50.964;6.948;2024-01-15T02:38:19;14.27;;;7.20;;
79410;SDS011;69635;50.964;6.948;2024-01-15T02:40:44;14.85;;;6.45;;
79410;SDS011;69635;50.964;6.948;2024-01-15T02:43:10;10.52;;;5.30;;
79410;SDS011;69635;50.964;6.948;2024-01-15T02:45:36;17.50;;;8.18;;
79410;SDS011;69635;50.964;6.948;2024-01-15T02:48:01;21.60;;;8.18;;
79410;SDS011;69635;50.964;6.948;2024-01-15T02:50:27;17.77;;;7.30;;
79410;SDS011;69635;50.964;6.948;2024-01-15T02:52:52;14.50;;;6.43;;
79410;SDS011;69635;50.964;6.948;2024-01-15T02:55:18;19.88;;;7.78;;
79410;SDS011;69635;50.964;6.948;2024-01-15T02:57:43;18.20;;;6.05;;
79410;SDS011;69635;50.964;6.948;2024-01-15T03:00:09;14.55;;;7.00;;
79410;SDS011;69635;50.964;6.948;2024-01-15T03:02:38;12.93;;;6.10;;
79410;SDS011;69635;50.964;6.948;2024-01-15T03:05:05;20.27;;;8.30;;
79410;SDS011;69635;50.964;6.948;2024-01-15T03:07:31;16.80;;;7.28;;
79410;SDS011;69635;50.964;6.948;2024-01-15T03:09:57;25.67;;;9.63;;
79410;SDS011;69635;50.964;6.948;2024-01-15T03:12:22;17.20;;;7.28;;
79410;SDS011;69635;50.964;6.948;2024-01-15T03:14:48;13.60;;;6.32;;
79410;SDS011;69635;50.964;6.948;2024-01-15T03:17:13;13.45;;;5.70;;
79410;SDS011;69635;50.964;6.948;2024-01-15T03:19:38;19.15;;;7.85;;
79410;SDS011;69635;50.964;6.948;2024-01-15T03:22:04;10.05;;;5.18;;
79410;SDS011;69635;50.964;6.948;2024-01-15T03:24:29;20.40;;;7.68;;
79410;SDS011;69635;50.964;6.948;2024-01-15T03:26:56;26.05;;;8.43;;
79410;SDS011;69635;50.964;6.948;2024-01-15T03:29:22;17.38;;;8.13;;
79410;SDS011;69635;50.964;6.948;2024-01-15T03:31:48;22.42;;;7.28;;
79410;SDS011;69635;50.964;6.948;2024-01-15T03:34:13;20.95;;;8.10;;
79410;SDS011;69635;50.964;6.948;2024-01-15T03:36:39;9.52;;;4.30;;
79410;SDS011;69635;50.964;6.948;2024-01-15T03:39:04;12.52;;;5.53;;
79410;SDS011;69635;50.964;6.948;2024-01-15T03:41:29;8.55;;;4.88;;
79410;SDS011;69635;50.964;6.948;2024-01-15T03:43:55;21.27;;;8.20;;
79410;SDS011;69635;50.964;6.948;2024-01-15T03:46:20;12.98;;;5.82;;
79410;SDS011;69635;50.964;6.948;2024-01-15T03:48:45;12.40;;;6.03;;
79410;SDS011;69635;50.964;6.948;2024-01-15T03:51:11;9.95;;;4.75;;
79410;SDS011;69635;50.964;6.948;2024-01-15T03:53:37;15.10;;;6.28;;
79410;SDS011;69635;50.964;6.948;2024-01-15T03:56:03;17.15;;;7.40;;
79410;SDS011;69635;50.964;6.948;2024-01-15T03:58:29;13.20;;;6.57;;
79410;SDS011;69635;50.964;6.948;2024-01-15T04:00:54;14.02;;;6.55;;
79410;SDS011;69635;50.964;6.948;2024-01-15T04:03:19;19.58;;;6.93;;
79410;SDS011;69635;50.964;6.948;2024-01-15T04:05:45;20.75;;;9.63;;
79410;SDS011;69635;50.964;6.948;2024-01-15T04:08:10;13.05;;;5.45;;
79410;SDS011;69635;50.964;6.948;2024-01-15T04:10:36;17.35;;;8.05;;
79410;SDS011;69635;50.964;6.948;2024-01-15T04:13:01;11.63;;;5.85;;
79410;SDS011;69635;50.964;6.948;2024-01-15T04:15:28;18.73;;;7.13;;
79410;SDS011;69635;50.964;6.948;2024-01-15T04:17:54;23.77;;;8.45;;
79410;SDS011;69635;50.964;6.948;2024-01-15T04:20:19;14.70;;;7.78;;
79410;SDS011;69635;50.964;6.948;2024-01-15T04:22:44;15.13;;;5.82;;
79410;SDS011;69635;50.964;6.948;2024-01-15T04:25:10;18.00;;;8.85;;
79410;SDS011;69635;50.964;6.948;2024-01-15T04:27:35;23.38;;;8.75;;
79410;SDS011;69635;50.964;6.948;2024-01-15T04:30:00;15.80;;;7.13;;
79410;SDS011;69635;50.964;6.948;2024-01-15T04:32:26;19.45;;;8.10;;
79410;SDS011;69635;50.964;6.948;2024-01-15T04:34:51;19.17;;;7.20;;
79410;SDS011;69635;50.964;6.948;2024-01-15T04:37:17;17.05;;;7.50;;
79410;SDS011;69635;50.964;6.948;2024-01-15T04:39:42;13.65;;;6.85;;
79410;SDS011;69635;50.964;6.948;2024-01-15T04:42:08;21.10;;;8.65;;
79410;SDS011;69635;50.964;6.948;2024-01-15T04:44:33;16.30;;;7.72;;
79410;SDS011;69635;50.964;6.948;2024-01-15T04:46:59;16.02;;;6.13;;
79410;SDS011;69635;50.964;6.948;2024-01-15T04:49:24;11.70;;;4.47;;
79410;SDS011;69635;50.964;6.948;2024-01-15T04:51:52;16.88;;;7.38;;
79410;SDS011;69635;50.964;6.948;2024-01-15T04:54:18;17.67;;;7.10;;
79410;SDS011;69635;50.964;6.948;2024-01-15T04:56:43;18.70;;;5.63;;
79410;SDS011;69635;50.964;6.948;2024-01-15T04:59:10;10.20;;;5.07;;
79410;SDS011;69635;50.964;6.948;2024-01-15T05:01:35;12.10;;;4.50;;
79410;SDS011;69635;50.964;6.948;2024-01-15T05:04:01;16.13;;;4.93;;
79410;SDS011;69635;50.964;6.948;2024-01-15T05:06:26;9.55;;;4.25;;
79410;SDS011;69635;50.964;6.948;2024-01-15T05:08:51;10.40;;;4.35;;
79410;SDS011;69635;50.964;6.948;2024-01-15T05:11:17;16.65;;;6.75;;
79410;SDS011;69635;50.964;6.948;2024-01-15T05:13:42;8.90;;;4.43;;
79410;SDS011;69635;50.964;6.948;2024-01-15T05:16:08;20.63;;;6.18;;
79410;SDS011;69635;50.964;6.948;2024-01-15T05:18:33;8.50;;;4.10;;
79410;SDS011;69635;50.964;6.948;2024-01-15T05:20:59;13.80;;;5.68;;
79410;SDS011;69635;50.964;6.948;2024-01-15T05:23:25;14.35;;;5.20;;
79410;SDS011;69635;50.964;6.948;2024-01-15T05:25:50;14.60;;;7.05;;
79410;SDS011;69635;50.964;6.948;2024-01-15T05:28:15;11.52;;;5.90;;
79410;SDS011;69635;50.964;6.948;2024-01-15T05:30:41;11.93;;;5.60;;
79410;SDS011;69635;50.964;6.948;2024-01-15T05:33:07;9.40;;;4.63;;
79410;SDS011;69635;50.964;6.948;2024-01-15T05:35:35;10.50;;;4.97;;
79410;SDS011;69635;50.964;6.948;2024-01-15T05:38:01;12.95;;;5.80;;
79410;SDS011;69635;50.964;6.948;2024-01-15T05:40:27;14.60;;;5.75;;
79410;SDS011;69635;50.964;6.948;2024-01-15T05:42:53;11.57;;;4.45;;
79410;SDS011;69635;50.964;6.948;2024-01-15T05:45:18;12.75;;;5.50;;
79410;SDS011;69635;50.964;6.948;2024-01-15T05:47:44;15.88;;;6.50;;
79410;SDS011;69635;50.964;6.948;2024-01-15T05:50:09;16.67;;;5.47;;
79410;SDS011;69635;50.964;6.948;2024-01-15T05:52:35;12.90;;;5.60;;
79410;SDS011;69635;50.964;6.948;2024-01-15T05:55:00;15.25;;;4.78;;
79410;SDS011;69635;50.964;6.948;2024-01-15T05:57:27;11.55;;;5.18;;
79410;SDS011;69635;50.964;6.948;2024-01-15T05:59:53;11.77;;;4.32;;
79410;SDS011;69635;50.964;6.948;2024-01-15T06:02:18;13.15;;;5.80;;
79410;SDS011;69635;50.964;6.948;2024-01-15T06:04:44;9.50;;;5.22;;
79410;SDS011;69635;50.964;6.948;2024-01-15T06:07:09;11.20;;;5.07;;
79410;SDS011;69635;50.964;6.948;2024-01-15T06:09:34;15.65;;;6.07;;
79410;SDS011;69635;50.964;6.948;2024-01-15T06:12:00;10.10;;;4.72;;
79410;SDS011;69635;50.964;6.948;2024-01-15T06:14:25;11.15;;;4.55;;
79410;SDS011;69635;50.964;6.948;2024-01-15T06:16:52;11.75;;;5.20;;
79410;SDS011;69635;50.964;6.948;2024-01-15T06:19:17;11.15;;;4.65;;
79410;SDS011;69635;50.964;6.948;2024-01-15T06:21:43;12.18;;;5.28;;
79410;SDS011;69635;50.964;6.948;2024-01-15T06:24:08;7.53;;;3.40;;
79410;SDS011;69635;50.964;6.948;2024-01-15T06:26:35;11.68;;;4.38;;
79410;SDS011;69635;50.964;6.948;2024-01-15T06:29:00;11.82;;;5.03;;
79410;SDS011;69635;50.964;6.948;2024-01-15T06:31:26;13.05;;;5.78;;
79410;SDS011;69635;50.964;6.948;2024-01-15T06:33:51;9.68;;;5.60;;
79410;SDS011;69635;50.964;6.948;2024-01-15T06:36:17;11.75;;;5.00;;
79410;SDS011;69635;50.964;6.948;2024-01-15T06:38:45;14.68;;;6.25;;
79410;SDS011;69635;50.964;6.948;2024-01-15T06:41:10;9.10;;;4.05;;
79410;SDS011;69635;50.964;6.948;2024-01-15T06:43:36;13.57;;;5.22;;
79410;SDS011;69635;50.964;6.948;2024-01-15T06:46:01;12.45;;;4.50;;
79410;SDS011;69635;50.964;6.948;2024-01-15T06:48:27;12.98;;;5.78;;
79410;SDS011;69635;50.964;6.948;2024-01-15T06:50:52;11.30;;;4.75;;
79410;SDS011;69635;50.964;6.948;2024-01-15T06:53:18;15.70;;;6.10;;
79410;SDS011;69635;50.964;6.948;2024-01-15T06:55:43;14.90;;;5.93;;
79410;SDS011;69635;50.964;6.948;2024-01-15T06:58:09;9.88;;;4.90;;
79410;SDS011;69635;50.964;6.948;2024-01-15T07:00:35;10.38;;;5.63;;
79410;SDS011;69635;50.964;6.948;2024-01-15T07:03:03;14.13;;;5.63;;
79410;SDS011;69635;50.964;6.948;2024-01-15T07:05:30;10.55;;;4.75;;
79410;SDS011;69635;50.964;6.948;2024-01-15T07:07:56;11.55;;;5.28;;
79410;SDS011;69635;50.964;6.948;2024-01-15T07:10:21;11.15;;;5.03;;
79410;SDS011;69635;50.964;6.948;2024-01-15T07:12:47;17.17;;;7.80;;
79410;SDS011;69635;50.964;6.948;2024-01-15T07:15:13;15.15;;;6.13;;
79410;SDS011;69635;50.964;6.948;2024-01-15T07:17:39;9.32;;;4.35;;
79410;SDS011;69635;50.964;6.948;2024-01-15T07:20:06;12.70;;;5.50;;
79410;SDS011;69635;50.964;6.948;2024-01-15T07:22:33;11.60;;;6.60;;
79410;SDS011;69635;50.964;6.948;2024-01-15T07:24:59;10.43;;;3.45;;
79410;SDS011;69635;50.964;6.948;2024-01-15T07:27:24;16.15;;;5.50;;
79410;SDS011;69635;50.964;6.948;2024-01-15T07:29:50;12.75;;;5.75;;
79410;SDS011;69635;50.964;6.948;2024-01-15T07:32:15;14.10;;;7.00;;
79410;SDS011;69635;50.964;6.948;2024-01-15T07:34:41;11.05;;;5.57;;
79410;SDS011;69635;50.964;6.948;2024-01-15T07:37:06;14.48;;;6.70;;
79410;SDS011;69635;50.964;6.948;2024-01-15T07:39:32;7.57;;;4.03;;
79410;SDS011;69635;50.964;6.948;2024-01-15T07:42:00;10.48;;;4.38;;
79410;SDS011;69635;50.964;6.948;2024-01-15T07:44:26;7.97;;;4.70;;
79410;SDS011;69635;50.964;6.948;2024-01-15T07:46:52;13.98;;;5.45;;
79410;SDS011;69635;50.964;6.948;2024-01-15T07:49:17;10.23;;;3.78;;
79410;SDS011;69635;50.964;6.948;2024-01-15T07:51:43;6.78;;;3.75;;
79410;SDS011;69635;50.964;6.948;2024-01-15T07:54:12;14.52;;;5.90;;
79410;SDS011;69635;50.964;6.948;2024-01-15T07:56:57;13.07;;;5.70;;
79410;SDS011;69635;50.964;6.948;2024-01-15T07:59:28;6.22;;;3.95;;
79410;SDS011;69635;50.964;6.948;2024-01-15T08:02:15;13.05;;;6.35;;
79410;SDS011;69635;50.964;6.948;2024-01-15T08:04:40;13.13;;;5.78;;
79410;SDS011;69635;50.964;6.948;2024-01-15T08:07:05;13.27;;;5.97;;
79410;SDS011;69635;50.964;6.948;2024-01-15T08:09:32;15.55;;;6.05;;
79410;SDS011;69635;50.964;6.948;2024-01-15T08:11:58;13.23;;;6.53;;
79410;SDS011;69635;50.964;6.948;2024-01-15T08:14:23;15.10;;;6.53;;
79410;SDS011;69635;50.964;6.948;2024-01-15T08:16:49;10.70;;;5.43;;
79410;SDS011;69635;50.964;6.948;2024-01-15T08:19:14;12.85;;;4.75;;
79410;SDS011;69635;50.964;6.948;2024-01-15T08:21:40;6.80;;;3.72;;
79410;SDS011;69635;50.964;6.948;2024-01-15T08:24:06;14.75;;;6.25;;
79410;SDS011;69635;50.964;6.948;2024-01-15T08:26:32;15.95;;;7.53;;
79410;SDS011;69635;50.964;6.948;2024-01-15T08:28:57;13.25;;;6.03;;
79410;SDS011;69635;50.964;6.948;2024-01-15T08:31:23;16.60;;;6.70;;
79410;SDS011;69635;50.964;6.948;2024-01-15T08:33:49;14.23;;;7.30;;
79410;SDS011;69635;50.964;6.948;2024-01-15T08:36:14;7.72;;;4.65;;
79410;SDS011;69635;50.964;6.948;2024-01-15T08:38:41;15.68;;;6.80;;
79410;SDS011;69635;50.964;6.948;2024-01-15T08:41:07;18.85;;;4.95;;
79410;SDS011;69635;50.964;6.948;2024-01-15T08:43:33;13.15;;;4.70;;
79410;SDS011;69635;50.964;6.948;2024-01-15T08:45:59;14.88;;;5.93;;
79410;SDS011;69635;50.964;6.948;2024-01-15T08:48:25;11.50;;;6.13;;
79410;SDS011;69635;50.964;6.948;2024-01-15T08:50:54;14.07;;;5.97;;
79410;SDS011;69635;50.964;6.948;2024-01-15T08:53:20;5.72;;;3.78;;
79410;SDS011;69635;50.964;6.948;2024-01-15T08:55:46;11.55;;;5.55;;
79410;SDS011;69635;50.964;6.948;2024-01-15T08:58:12;14.20;;;5.32;;
79410;SDS011;69635;50.964;6.948;2024-01-15T09:00:38;14.15;;;6.38;;
79410;SDS011;69635;50.964;6.948;2024-01-15T09:03:03;18.15;;;7.13;;
79410;SDS011;69635;50.964;6.948;2024-01-15T09:05:29;19.25;;;8.23;;
79410;SDS011;69635;50.964;6.948;2024-01-15T09:07:55;15.85;;;6.75;;
79410;SDS011;69635;50.964;6.948;2024-01-15T09:10:21;11.15;;;5.22;;
79410;SDS011;69635;50.964;6.948;2024-01-15T09:12:46;9.93;;;4.00;;
79410;SDS011;69635;50.964;6.948;2024-01-15T09:15:19;13.68;;;6.30;;
79410;SDS011;69635;50.964;6.948;2024-01-15T09:17:46;15.85;;;6.78;;
79410;SDS011;69635;50.964;6.948;2024-01-15T09:20:12;11.35;;;6.35;;
79410;SDS011;69635;50.964;6.948;2024-01-15T09:22:38;11.52;;;5.57;;
79410;SDS011;69635;50.964;6.948;2024-01-15T09:25:06;10.68;;;4.13;;
79410;SDS011;69635;50.964;6.948;2024-01-15T09:27:32;9.77;;;5.63;;
79410;SDS011;69635;50.964;6.948;2024-01-15T09:29:58;15.73;;;7.43;;
79410;SDS011;69635;50.964;6.948;2024-01-15T09:32:23;13.48;;;6.13;;
79410;SDS011;69635;50.964;6.948;2024-01-15T09:34:48;11.93;;;6.35;;
79410;SDS011;69635;50.964;6.948;2024-01-15T09:37:14;10.90;;;5.22;;
79410;SDS011;69635;50.964;6.948;2024-01-15T09:39:40;8.95;;;4.30;;
79410;SDS011;69635;50.964;6.948;2024-01-15T09:42:06;9.15;;;4.85;;
79410;SDS011;69635;50.964;6.948;2024-01-15T09:44:32;22.05;;;4.68;;
79410;SDS011;69635;50.964;6.948;2024-01-15T09:46:58;10.35;;;6.13;;
79410;SDS011;69635;50.964;6.948;2024-01-15T09:49:23;7.60;;;4.38;;
79410;SDS011;69635;50.964;6.948;2024-01-15T09:51:49;6.32;;;3.58;;
79410;SDS011;69635;50.964;6.948;2024-01-15T09:54:15;7.50;;;4.00;;
79410;SDS011;69635;50.964;6.948;2024-01-15T09:56:44;7.85;;;3.38;;
79410;SDS011;69635;50.964;6.948;2024-01-15T09:59:17;6.85;;;3.47;;
79410;SDS011;69635;50.964;6.948;2024-01-15T10:01:44;7.70;;;4.38;;
79410;SDS011;69635;50.964;6.948;2024-01-15T10:04:10;3.35;;;2.55;;
79410;SDS011;69635;50.964;6.948;2024-01-15T10:06:42;4.50;;;3.72;;
79410;SDS011;69635;50.964;6.948;2024-01-15T10:09:10;5.80;;;3.92;;
79410;SDS011;69635;50.964;6.948;2024-01-15T10:11:39;4.13;;;2.47;;
79410;SDS011;69635;50.964;6.948;2024-01-15T10:14:06;5.10;;;2.70;;
79410;SDS011;69635;50.964;6.948;2024-01-15T10:16:32;7.25;;;3.08;;
79410;SDS011;69635;50.964;6.948;2024-01-15T10:18:58;3.97;;;2.78;;
79410;SDS011;69635;50.964;6.948;2024-01-15T10:21:24;4.28;;;2.67;;
79410;SDS011;69635;50.964;6.948;2024-01-15T10:23:51;2.95;;;2.40;;
79410;SDS011;69635;50.964;6.948;2024-01-15T10:31:21;5.03;;;3.03;;
79410;SDS011;69635;50.964;6.948;2024-01-15T10:33:50;4.25;;;2.25;;
79410;SDS011;69635;50.964;6.948;2024-01-15T10:36:16;2.30;;;1.58;;
79410;SDS011;69635;50.964;6.948;2024-01-15T10:38:45;3.95;;;2.25;;
79410;SDS011;69635;50.964;6.948;2024-01-15T10:41:11;5.47;;;3.00;;
79410;SDS011;69635;50.964;6.948;2024-01-15T10:43:37;3.03;;;1.98;;
79410;SDS011;69635;50.964;6.948;2024-01-15T10:46:03;3.13;;;1.65;;
79410;SDS011;69635;50.964;6.948;2024-01-15T10:48:29;5.47;;;3.03;;
79410;SDS011;69635;50.964;6.948;2024-01-15T10:50:59;2.65;;;1.77;;
79410;SDS011;69635;50.964;6.948;2024-01-15T10:53:24;4.53;;;2.53;;
79410;SDS011;69635;50.964;6.948;2024-01-15T10:55:50;4.35;;;2.28;;
79410;SDS011;69635;50.964;6.948;2024-01-15T10:58:20;5.05;;;2.15;;
79410;SDS011;69635;50.964;6.948;2024-01-15T11:00:47;4.63;;;2.38;;
79410;SDS011;69635;50.964;6.948;2024-01-15T11:03:13;4.95;;;2.85;;
79410;SDS011;69635;50.964;6.948;2024-01-15T11:05:42;5.55;;;2.10;;
79410;SDS011;69635;50.964;6.948;2024-01-15T11:08:09;3.28;;;2.20;;
79410;SDS011;69635;50.964;6.948;2024-01-15T11:11:09;4.32;;;1.92;;
79410;SDS011;69635;50.964;6.948;2024-01-15T11:16:17;3.65;;;1.88;;
79410;SDS011;69635;50.964;6.948;2024-01-15T11:19:01;1.63;;;0.82;;
79410;SDS011;69635;50.964;6.948;2024-01-15T11:21:30;5.85;;;1.75;;
79410;SDS011;69635;50.964;6.948;2024-01-15T11:23:56;1.65;;;1.00;;
79410;SDS011;69635;50.964;6.948;2024-01-15T11:31:57;5.00;;;1.10;;
79410;SDS011;69635;50.964;6.948;2024-01-15T11:42:58;1.40;;;1.00;;
79410;SDS011;69635;50.964;6.948;2024-01-15T11:45:25;2.00;;;1.27;;
79410;SDS011;69635;50.964;6.948;2024-01-15T11:50:41;2.40;;;1.88;;
79410;SDS011;69635;50.964;6.948;2024-01-15T11:55:44;2.78;;;1.83;;
79410;SDS011;69635;50.964;6.948;2024-01-15T11:58:10;7.35;;;2.95;;
79410;SDS011;69635;50.964;6.948;2024-01-15T12:00:54;3.13;;;2.17;;
79410;SDS011;69635;50.964;6.948;2024-01-15T12:03:23;5.05;;;2.22;;
79410;SDS011;69635;50.964;6.948;2024-01-15T12:08:25;3.20;;;2.10;;
79410;SDS011;69635;50.964;6.948;2024-01-15T12:10:53;6.63;;;2.72;;
79410;SDS011;69635;50.964;6.948;2024-01-15T12:13:18;1.52;;;1.15;;
79410;SDS011;69635;50.964;6.948;2024-01-15T12:15:46;8.15;;;3.33;;
79410;SDS011;69635;50.964;6.948;2024-01-15T12:18:14;4.07;;;2.75;;
79410;SDS011;69635;50.964;6.948;2024-01-15T12:20:41;6.45;;;2.58;;
79410;SDS011;69635;50.964;6.948;2024-01-15T12:23:07;6.13;;;3.65;;
79410;SDS011;69635;50.964;6.948;2024-01-15T12:25:36;7.63;;;3.50;;
79410;SDS011;69635;50.964;6.948;2024-01-15T12:28:06;7.47;;;3.58;;
79410;SDS011;69635;50.964;6.948;2024-01-15T12:30:33;2.17;;;1.52;;
79410;SDS011;69635;50.964;6.948;2024-01-15T12:33:01;6.57;;;3.20;;
79410;SDS011;69635;50.964;6.948;2024-01-15T12:35:29;7.20;;;3.22;;
79410;SDS011;69635;50.964;6.948;2024-01-15T12:37:55;6.25;;;3.35;;
79410;SDS011;69635;50.964;6.948;2024-01-15T12:40:22;6.57;;;2.00;;
79410;SDS011;69635;50.964;6.948;2024-01-15T12:42:50;1.98;;;1.30;;
79410;SDS011;69635;50.964;6.948;2024-01-15T12:45:15;4.50;;;2.40;;
79410;SDS011;69635;50.964;6.948;2024-01-15T12:47:41;4.68;;;2.25;;
79410;SDS011;69635;50.964;6.948;2024-01-15T12:50:08;5.88;;;2.95;;
79410;SDS011;69635;50.964;6.948;2024-01-15T12:52:35;3.47;;;2.03;;
79410;SDS011;69635;50.964;6.948;2024-01-15T12:55:03;9.13;;;2.95;;
79410;SDS011;69635;50.964;6.948;2024-01-15T12:57:35;3.95;;;1.80;;
79410;SDS011;69635;50.964;6.948;2024-01-15T13:00:02;6.25;;;2.63;;
79410;SDS011;69635;50.964;6.948;2024-01-15T13:02:32;2.40;;;1.73;;
79410;SDS011;69635;50.964;6.948;2024-01-15T13:04:58;2.47;;;1.38;;
79410;SDS011;69635;50.964;6.948;2024-01-15T13:07:24;6.88;;;1.63;;
79410;SDS011;69635;50.964;6.948;2024-01-15T13:09:50;4.80;;;2.08;;
79410;SDS011;69635;50.964;6.948;2024-01-15T13:12:19;2.55;;;1.77;;
79410;SDS011;69635;50.964;6.948;2024-01-15T13:14:46;2.17;;;1.35;;
79410;SDS011;69635;50.964;6.948;2024-01-15T13:19:40;2.37;;;1.57;;
79410;SDS011;69635;50.964;6.948;2024-01-15T13:22:06;2.13;;;1.45;;
79410;SDS011;69635;50.964;6.948;2024-01-15T13:24:34;1.90;;;0.90;;
79410;SDS011;69635;50.964;6.948;2024-01-15T13:27:01;2.83;;;1.50;;
79410;SDS011;69635;50.964;6.948;2024-01-15T13:29:28;6.28;;;1.67;;
79410;SDS011;69635;50.964;6.948;2024-01-15T13:31:53;4.13;;;1.70;;
79410;SDS011;69635;50.964;6.948;2024-01-15T13:34:19;3.97;;;1.58;;
79410;SDS011;69635;50.964;6.948;2024-01-15T13:36:44;1.45;;;0.98;;
79410;SDS011;69635;50.964;6.948;2024-01-15T13:39:10;2.10;;;1.38;;
79410;SDS011;69635;50.964;6.948;2024-01-15T13:41:36;1.13;;;1.02;;
79410;SDS011;69635;50.964;6.948;2024-01-15T13:44:01;1.83;;;0.98;;
79410;SDS011;69635;50.964;6.948;2024-01-15T13:46:28;0.70;;;0.52;;
79410;SDS011;69635;50.964;6.948;2024-01-15T13:48:54;2.42;;;1.15;;
79410;SDS011;69635;50.964;6.948;2024-01-15T13:51:23;1.30;;;1.10;;
79410;SDS011;69635;50.964;6.948;2024-01-15T13:53:48;1.83;;;1.20;;
79410;SDS011;69635;50.964;6.948;2024-01-15T13:56:14;1.02;;;0.93;;
79410;SDS011;69635;50.964;6.948;2024-01-15T13:58:40;1.52;;;1.02;;
79410;SDS011;69635;50.964;6.948;2024-01-15T14:01:07;1.52;;;0.85;;
79410;SDS011;69635;50.964;6.948;2024-01-15T14:03:48;8.27;;;1.30;;
79410;SDS011;69635;50.964;6.948;2024-01-15T14:06:14;0.73;;;0.55;;
79410;SDS011;69635;50.964;6.948;2024-01-15T14:08:39;0.73;;;0.47;;
79410;SDS011;69635;50.964;6.948;2024-01-15T14:11:05;1.05;;;0.63;;
79410;SDS011;69635;50.964;6.948;2024-01-15T14:13:33;0.73;;;0.57;;
79410;SDS011;69635;50.964;6.948;2024-01-15T14:15:59;1.38;;;0.85;;
79410;SDS011;69635;50.964;6.948;2024-01-15T14:18:26;1.38;;;0.93;;
79410;SDS011;69635;50.964;6.948;2024-01-15T14:20:52;0.82;;;0.63;;
79410;SDS011;69635;50.964;6.948;2024-01-15T14:23:20;0.68;;;0.60;;
79410;SDS011;69635;50.964;6.948;2024-01-15T14:25:46;2.08;;;1.00;;
79410;SDS011;69635;50.964;6.948;2024-01-15T14:41:07;2.28;;;1.08;;
79410;SDS011;69635;50.964;6.948;2024-01-15T14:43:36;1.50;;;0.90;;
79410;SDS011;69635;50.964;6.948;2024-01-15T14:46:01;3.47;;;0.90;;
79410;SDS011;69635;50.964;6.948;2024-01-15T14:48:27;1.73;;;0.90;;
79410;SDS011;69635;50.964;6.948;2024-01-15T15:06:24;1.38;;;1.08;;
79410;SDS011;69635;50.964;6.948;2024-01-15T15:21:49;2.95;;;1.50;;
79410;SDS011;69635;50.964;6.948;2024-01-15T15:24:14;1.17;;;0.65;;
79410;SDS011;69635;50.964;6.948;2024-01-15T15:31:50;1.88;;;0.93;;
79410;SDS011;69635;50.964;6.948;2024-01-15T15:34:23;5.30;;;1.60;;
79410;SDS011;69635;50.964;6.948;2024-01-15T15:37:11;2.22;;;1.02;;
79410;SDS011;69635;50.964;6.948;2024-01-15T15:42:05;2.45;;;1.50;;
79410;SDS011;69635;50.964;6.948;2024-01-15T15:44:30;1.65;;;0.80;;
79410;SDS011;69635;50.964;6.948;2024-01-15T15:46:55;2.20;;;1.30;;
79410;SDS011;69635;50.964;6.948;2024-01-15T15:49:21;2.47;;;0.98;;
79410;SDS011;69635;50.964;6.948;2024-01-15T15:54:32;2.15;;;1.58;;
79410;SDS011;69635;50.964;6.948;2024-01-15T15:57:16;2.00;;;0.95;;
79410;SDS011;69635;50.964;6.948;2024-01-15T15:59:42;3.72;;;2.00;;